sensor_id;sensor_type;location;lat;lon;timestamp;P1;durP1;ratioP1;P2;durP2;ratioP2
19671;SDS011;9983;51.114;13.788;2022-10-26T00:04:35;7.88;;;2.90;;
19671;SDS011;9983;51.114;13.788;2022-10-26T00:09:36;4.15;;;2.42;;
19671;SDS011;9983;51.114;13.788;2022-10-26T00:14:36;5.43;;;3.00;;
19671;SDS011;9983;51.114;13.788;2022-10-26T00:19:36;7.88;;;2.97;;
19671;SDS011;9983;51.114;13.788;2022-10-26T00:24:37;5.68;;;2.72;;
19671;SDS011;9983;51.114;13.788;2022-10-26T00:29:37;6.38;;;2.80;;
19671;SDS011;9983;51.114;13.788;2022-10-26T00:34:37;4.63;;;2.80;;
19671;SDS011;9983;51.114;13.788;2022-10-26T00:39:37;7.25;;;2.75;;
19671;SDS011;9983;51.114;13.788;2022-10-26T00:49:47;3.17;;;2.63;;
19671;SDS011;9983;51.114;13.788;2022-10-26T00:54:51;3.25;;;2.72;;
19671;SDS011;9983;51.114;13.788;2022-10-26T00:59:53;7.18;;;3.20;;
19671;SDS011;9983;51.114;13.788;2022-10-26T01:04:55;5.57;;;2.75;;
19671;SDS011;9983;51.114;13.788;2022-10-26T01:09:55;8.75;;;3.08;;
19671;SDS011;9983;51.114;13.788;2022-10-26T01:14:56;5.03;;;3.08;;
19671;SDS011;9983;51.114;13.788;2022-10-26T01:30:52;5.90;;;2.80;;
19671;SDS011;9983;51.114;13.788;2022-10-26T01:46:28;3.63;;;2.47;;
19671;SDS011;9983;51.114;13.788;2022-10-26T01:51:33;3.80;;;2.80;;
19671;SDS011;9983;51.114;13.788;2022-10-26T01:56:38;6.82;;;2.78;;
19671;SDS011;9983;51.114;13.788;2022-10-26T02:12:02;5.57;;;2.85;;
19671;SDS011;9983;51.114;13.788;2022-10-26T02:17:13;8.15;;;3.05;;
19671;SDS011;9983;51.114;13.788;2022-10-26T02:22:23;5.20;;;2.80;;
19671;SDS011;9983;51.114;13.788;2022-10-26T02:27:30;7.32;;;2.80;;
19671;SDS011;9983;51.114;13.788;2022-10-26T02:32:34;3.75;;;2.40;;
19671;SDS011;9983;51.114;13.788;2022-10-26T02:37:38;5.50;;;2.85;;
19671;SDS011;9983;51.114;13.788;2022-10-26T02:42:41;6.93;;;2.80;;
19671;SDS011;9983;51.114;13.788;2022-10-26T02:47:44;3.28;;;2.58;;
19671;SDS011;9983;51.114;13.788;2022-10-26T02:58:15;3.85;;;2.72;;
19671;SDS011;9983;51.114;13.788;2022-10-26T03:03:21;4.60;;;2.97;;
19671;SDS011;9983;51.114;13.788;2022-10-26T03:08:22;3.13;;;2.80;;
19671;SDS011;9983;51.114;13.788;2022-10-26T03:13:22;7.15;;;2.88;;
19671;SDS011;9983;51.114;13.788;2022-10-26T03:18:23;6.80;;;2.92;;
19671;SDS011;9983;51.114;13.788;2022-10-26T03:23:23;5.88;;;2.53;;
19671;SDS011;9983;51.114;13.788;2022-10-26T03:28:23;5.78;;;2.90;;
19671;SDS011;9983;51.114;13.788;2022-10-26T03:33:24;3.10;;;2.35;;
19671;SDS011;9983;51.114;13.788;2022-10-26T03:38:24;6.90;;;3.00;;
19671;SDS011;9983;51.114;13.788;2022-10-26T03:43:25;4.30;;;3.00;;
19671;SDS011;9983;51.114;13.788;2022-10-26T03:48:25;3.78;;;2.95;;
19671;SDS011;9983;51.114;13.788;2022-10-26T03:53:25;4.30;;;2.35;;
19671;SDS011;9983;51.114;13.788;2022-10-26T03:58:26;2.75;;;2.55;;
19671;SDS011;9983;51.114;13.788;2022-10-26T04:03:26;6.40;;;3.35;;
19671;SDS011;9983;51.114;13.788;2022-10-26T04:08:27;3.55;;;2.55;;
19671;SDS011;9983;51.114;13.788;2022-10-26T04:13:27;3.80;;;2.90;;
19671;SDS011;9983;51.114;13.788;2022-10-26T04:18:27;3.13;;;2.83;;
19671;SDS011;9983;51.114;13.788;2022-10-26T04:23:28;4.57;;;3.55;;
19671;SDS011;9983;51.114;13.788;2022-10-26T04:28:28;6.57;;;2.80;;
19671;SDS011;9983;51.114;13.788;2022-10-26T04:33:28;7.88;;;5.13;;
19671;SDS011;9983;51.114;13.788;2022-10-26T04:38:28;16.45;;;14.88;;
19671;SDS011;9983;51.114;13.788;2022-10-26T04:43:29;8.40;;;6.78;;
19671;SDS011;9983;51.114;13.788;2022-10-26T04:48:29;5.18;;;3.25;;
19671;SDS011;9983;51.114;13.788;2022-10-26T04:53:29;6.95;;;3.83;;
19671;SDS011;9983;51.114;13.788;2022-10-26T04:58:30;7.55;;;3.65;;
19671;SDS011;9983;51.114;13.788;2022-10-26T05:03:30;3.42;;;2.92;;
19671;SDS011;9983;51.114;13.788;2022-10-26T05:08:30;6.18;;;3.63;;
19671;SDS011;9983;51.114;13.788;2022-10-26T05:13:30;4.30;;;3.05;;
19671;SDS011;9983;51.114;13.788;2022-10-26T05:18:31;4.47;;;3.35;;
19671;SDS011;9983;51.114;13.788;2022-10-26T05:23:31;3.90;;;3.42;;
19671;SDS011;9983;51.114;13.788;2022-10-26T05:28:31;4.45;;;3.78;;
19671;SDS011;9983;51.114;13.788;2022-10-26T05:33:32;7.00;;;3.15;;
19671;SDS011;9983;51.114;13.788;2022-10-26T05:38:32;6.00;;;4.25;;
19671;SDS011;9983;51.114;13.788;2022-10-26T05:43:32;10.55;;;4.68;;
19671;SDS011;9983;51.114;13.788;2022-10-26T05:48:33;5.47;;;4.03;;
19671;SDS011;9983;51.114;13.788;2022-10-26T05:53:33;6.53;;;3.63;;
19671;SDS011;9983;51.114;13.788;2022-10-26T05:58:33;7.70;;;2.80;;
19671;SDS011;9983;51.114;13.788;2022-10-26T06:03:41;7.35;;;2.95;;
19671;SDS011;9983;51.114;13.788;2022-10-26T06:08:44;4.75;;;3.10;;
19671;SDS011;9983;51.114;13.788;2022-10-26T06:13:45;5.80;;;4.03;;
19671;SDS011;9983;51.114;13.788;2022-10-26T06:23:57;7.40;;;4.70;;
19671;SDS011;9983;51.114;13.788;2022-10-26T06:29:16;6.18;;;4.55;;
19671;SDS011;9983;51.114;13.788;2022-10-26T06:34:28;5.20;;;4.70;;
19671;SDS011;9983;51.114;13.788;2022-10-26T06:39:38;7.15;;;3.00;;
19671;SDS011;9983;51.114;13.788;2022-10-26T06:44:43;5.13;;;3.10;;
19671;SDS011;9983;51.114;13.788;2022-10-26T06:55:06;4.28;;;3.15;;
19671;SDS011;9983;51.114;13.788;2022-10-26T07:05:20;6.60;;;2.60;;
19671;SDS011;9983;51.114;13.788;2022-10-26T07:10:20;6.57;;;3.28;;
19671;SDS011;9983;51.114;13.788;2022-10-26T07:15:20;6.18;;;3.22;;
19671;SDS011;9983;51.114;13.788;2022-10-26T07:20:21;4.22;;;2.80;;
19671;SDS011;9983;51.114;13.788;2022-10-26T07:25:21;8.13;;;4.43;;
19671;SDS011;9983;51.114;13.788;2022-10-26T07:30:23;5.25;;;4.03;;
19671;SDS011;9983;51.114;13.788;2022-10-26T07:35:25;4.93;;;2.40;;
19671;SDS011;9983;51.114;13.788;2022-10-26T07:40:26;5.20;;;2.67;;
19671;SDS011;9983;51.114;13.788;2022-10-26T07:45:27;5.15;;;2.50;;
19671;SDS011;9983;51.114;13.788;2022-10-26T07:50:28;4.13;;;2.60;;
19671;SDS011;9983;51.114;13.788;2022-10-26T07:55:28;7.07;;;2.50;;
19671;SDS011;9983;51.114;13.788;2022-10-26T08:00:29;5.90;;;4.38;;
19671;SDS011;9983;51.114;13.788;2022-10-26T08:05:29;4.32;;;3.78;;
19671;SDS011;9983;51.114;13.788;2022-10-26T08:10:29;7.47;;;5.03;;
19671;SDS011;9983;51.114;13.788;2022-10-26T08:15:29;8.60;;;5.30;;
19671;SDS011;9983;51.114;13.788;2022-10-26T08:20:30;4.93;;;4.40;;
19671;SDS011;9983;51.114;13.788;2022-10-26T08:25:33;4.70;;;2.87;;
19671;SDS011;9983;51.114;13.788;2022-10-26T08:30:33;5.38;;;3.15;;
19671;SDS011;9983;51.114;13.788;2022-10-26T08:35:33;6.10;;;3.20;;
19671;SDS011;9983;51.114;13.788;2022-10-26T08:40:38;4.30;;;3.30;;
19671;SDS011;9983;51.114;13.788;2022-10-26T08:45:42;8.00;;;3.55;;
19671;SDS011;9983;51.114;13.788;2022-10-26T08:51:06;7.50;;;4.25;;
19671;SDS011;9983;51.114;13.788;2022-10-26T08:56:14;3.90;;;2.95;;
19671;SDS011;9983;51.114;13.788;2022-10-26T09:01:18;5.57;;;3.08;;
19671;SDS011;9983;51.114;13.788;2022-10-26T09:28:31;4.25;;;3.70;;
19671;SDS011;9983;51.114;13.788;2022-10-26T09:33:36;4.40;;;3.33;;
19671;SDS011;9983;51.114;13.788;2022-10-26T09:38:55;5.28;;;3.67;;
19671;SDS011;9983;51.114;13.788;2022-10-26T09:44:08;6.35;;;3.10;;
19671;SDS011;9983;51.114;13.788;2022-10-26T09:49:16;6.57;;;3.33;;
19671;SDS011;9983;51.114;13.788;2022-10-26T09:54:19;5.07;;;3.13;;
19671;SDS011;9983;51.114;13.788;2022-10-26T09:59:21;6.68;;;3.45;;
19671;SDS011;9983;51.114;13.788;2022-10-26T10:04:23;5.25;;;3.78;;
19671;SDS011;9983;51.114;13.788;2022-10-26T10:09:26;6.47;;;3.10;;
19671;SDS011;9983;51.114;13.788;2022-10-26T10:14:28;4.57;;;2.70;;
19671;SDS011;9983;51.114;13.788;2022-10-26T10:19:31;3.75;;;2.63;;
19671;SDS011;9983;51.114;13.788;2022-10-26T10:24:34;3.75;;;2.40;;
19671;SDS011;9983;51.114;13.788;2022-10-26T10:29:39;4.60;;;2.58;;
19671;SDS011;9983;51.114;13.788;2022-10-26T10:34:42;3.20;;;2.53;;
19671;SDS011;9983;51.114;13.788;2022-10-26T10:39:43;3.47;;;2.20;;
19671;SDS011;9983;51.114;13.788;2022-10-26T10:44:43;4.68;;;2.25;;
19671;SDS011;9983;51.114;13.788;2022-10-26T10:49:52;3.17;;;2.10;;
19671;SDS011;9983;51.114;13.788;2022-10-26T10:55:40;2.80;;;2.20;;
19671;SDS011;9983;51.114;13.788;2022-10-26T11:00:19;2.30;;;2.00;;
19671;SDS011;9983;51.114;13.788;2022-10-26T11:05:22;2.47;;;1.90;;
19671;SDS011;9983;51.114;13.788;2022-10-26T11:10:38;1.98;;;1.83;;
19671;SDS011;9983;51.114;13.788;2022-10-26T11:15:41;2.05;;;1.55;;
19671;SDS011;9983;51.114;13.788;2022-10-26T11:20:50;2.03;;;1.70;;
19671;SDS011;9983;51.114;13.788;2022-10-26T11:26:43;2.20;;;1.55;;
19671;SDS011;9983;51.114;13.788;2022-10-26T11:31:30;3.00;;;1.52;;
19671;SDS011;9983;51.114;13.788;2022-10-26T11:36:35;2.50;;;1.90;;
19671;SDS011;9983;51.114;13.788;2022-10-26T11:41:44;4.32;;;1.63;;
19671;SDS011;9983;51.114;13.788;2022-10-26T11:46:59;3.40;;;1.50;;
19671;SDS011;9983;51.114;13.788;2022-10-26T11:57:09;1.80;;;1.38;;
19671;SDS011;9983;51.114;13.788;2022-10-26T12:02:14;2.60;;;1.58;;
19671;SDS011;9983;51.114;13.788;2022-10-26T12:07:37;2.67;;;1.55;;
19671;SDS011;9983;51.114;13.788;2022-10-26T12:13:41;2.72;;;1.55;;
19671;SDS011;9983;51.114;13.788;2022-10-26T12:23:37;1.50;;;1.40;;
19671;SDS011;9983;51.114;13.788;2022-10-26T12:34:01;4.28;;;2.00;;
19671;SDS011;9983;51.114;13.788;2022-10-26T12:39:27;3.83;;;1.80;;
19671;SDS011;9983;51.114;13.788;2022-10-26T13:00:12;2.10;;;1.70;;
19671;SDS011;9983;51.114;13.788;2022-10-26T13:10:21;2.40;;;1.30;;
19671;SDS011;9983;51.114;13.788;2022-10-26T13:15:26;2.67;;;1.35;;
19671;SDS011;9983;51.114;13.788;2022-10-26T13:20:29;1.98;;;1.27;;
19671;SDS011;9983;51.114;13.788;2022-10-26T13:25:30;1.58;;;1.23;;
19671;SDS011;9983;51.114;13.788;2022-10-26T13:35:40;1.60;;;1.27;;
19671;SDS011;9983;51.114;13.788;2022-10-26T13:40:42;2.60;;;1.73;;
19671;SDS011;9983;51.114;13.788;2022-10-26T13:45:48;2.80;;;1.20;;
19671;SDS011;9983;51.114;13.788;2022-10-26T13:50:54;3.90;;;1.40;;
19671;SDS011;9983;51.114;13.788;2022-10-26T13:56:01;5.28;;;1.67;;
19671;SDS011;9983;51.114;13.788;2022-10-26T14:11:35;2.65;;;1.33;;
19671;SDS011;9983;51.114;13.788;2022-10-26T14:16:42;2.85;;;1.20;;
19671;SDS011;9983;51.114;13.788;2022-10-26T14:21:45;1.75;;;1.00;;
19671;SDS011;9983;51.114;13.788;2022-10-26T14:26:50;4.30;;;1.38;;
19671;SDS011;9983;51.114;13.788;2022-10-26T14:31:50;2.50;;;1.33;;
19671;SDS011;9983;51.114;13.788;2022-10-26T14:36:53;3.33;;;1.98;;
19671;SDS011;9983;51.114;13.788;2022-10-26T14:42:03;5.25;;;1.73;;
19671;SDS011;9983;51.114;13.788;2022-10-26T14:47:12;4.05;;;1.75;;
19671;SDS011;9983;51.114;13.788;2022-10-26T14:52:21;5.05;;;1.55;;
19671;SDS011;9983;51.114;13.788;2022-10-26T14:57:30;2.28;;;1.73;;
19671;SDS011;9983;51.114;13.788;2022-10-26T15:02:32;5.90;;;2.45;;
19671;SDS011;9983;51.114;13.788;2022-10-26T15:07:34;5.50;;;2.22;;
19671;SDS011;9983;51.114;13.788;2022-10-26T15:12:37;10.50;;;5.85;;
19671;SDS011;9983;51.114;13.788;2022-10-26T15:17:39;11.85;;;3.97;;
19671;SDS011;9983;51.114;13.788;2022-10-26T15:22:41;3.58;;;2.28;;
19671;SDS011;9983;51.114;13.788;2022-10-26T15:27:47;5.28;;;2.65;;
19671;SDS011;9983;51.114;13.788;2022-10-26T15:32:49;4.47;;;2.40;;
19671;SDS011;9983;51.114;13.788;2022-10-26T15:37:50;6.10;;;2.40;;
19671;SDS011;9983;51.114;13.788;2022-10-26T15:42:52;5.97;;;2.58;;
19671;SDS011;9983;51.114;13.788;2022-10-26T15:47:54;4.07;;;2.95;;
19671;SDS011;9983;51.114;13.788;2022-10-26T15:52:58;5.38;;;3.08;;
19671;SDS011;9983;51.114;13.788;2022-10-26T15:58:00;5.53;;;2.80;;
19671;SDS011;9983;51.114;13.788;2022-10-26T16:03:01;5.03;;;3.15;;
19671;SDS011;9983;51.114;13.788;2022-10-26T16:08:01;3.60;;;2.85;;
19671;SDS011;9983;51.114;13.788;2022-10-26T16:13:02;5.55;;;3.30;;
19671;SDS011;9983;51.114;13.788;2022-10-26T16:18:02;5.93;;;3.50;;
19671;SDS011;9983;51.114;13.788;2022-10-26T16:23:03;6.75;;;3.35;;
19671;SDS011;9983;51.114;13.788;2022-10-26T16:28:06;5.35;;;3.65;;
19671;SDS011;9983;51.114;13.788;2022-10-26T16:33:06;4.00;;;3.25;;
19671;SDS011;9983;51.114;13.788;2022-10-26T16:38:06;4.93;;;4.20;;
19671;SDS011;9983;51.114;13.788;2022-10-26T16:43:07;6.63;;;4.50;;
19671;SDS011;9983;51.114;13.788;2022-10-26T16:48:07;6.57;;;4.20;;
19671;SDS011;9983;51.114;13.788;2022-10-26T16:53:13;6.38;;;3.95;;
19671;SDS011;9983;51.114;13.788;2022-10-26T16:58:13;5.97;;;3.90;;
19671;SDS011;9983;51.114;13.788;2022-10-26T17:03:13;11.10;;;3.85;;
19671;SDS011;9983;51.114;13.788;2022-10-26T17:08:14;7.67;;;4.40;;
19671;SDS011;9983;51.114;13.788;2022-10-26T17:13:14;8.30;;;5.03;;
19671;SDS011;9983;51.114;13.788;2022-10-26T17:18:15;7.95;;;4.28;;
19671;SDS011;9983;51.114;13.788;2022-10-26T17:23:16;6.65;;;4.18;;
19671;SDS011;9983;51.114;13.788;2022-10-26T17:28:17;5.78;;;4.10;;
19671;SDS011;9983;51.114;13.788;2022-10-26T17:33:17;8.27;;;3.90;;
19671;SDS011;9983;51.114;13.788;2022-10-26T17:38:17;7.65;;;4.13;;
19671;SDS011;9983;51.114;13.788;2022-10-26T17:43:18;11.65;;;5.13;;
19671;SDS011;9983;51.114;13.788;2022-10-26T17:48:18;6.43;;;3.88;;
19671;SDS011;9983;51.114;13.788;2022-10-26T17:53:18;11.05;;;4.45;;
19671;SDS011;9983;51.114;13.788;2022-10-26T17:58:19;6.72;;;3.80;;
19671;SDS011;9983;51.114;13.788;2022-10-26T18:03:19;7.00;;;3.50;;
19671;SDS011;9983;51.114;13.788;2022-10-26T18:08:20;10.77;;;4.85;;
19671;SDS011;9983;51.114;13.788;2022-10-26T18:13:21;7.85;;;5.15;;
19671;SDS011;9983;51.114;13.788;2022-10-26T18:18:21;11.23;;;5.75;;
19671;SDS011;9983;51.114;13.788;2022-10-26T18:23:21;6.70;;;4.30;;
19671;SDS011;9983;51.114;13.788;2022-10-26T18:28:21;5.95;;;3.92;;
19671;SDS011;9983;51.114;13.788;2022-10-26T18:33:22;7.95;;;4.50;;
19671;SDS011;9983;51.114;13.788;2022-10-26T18:38:22;7.45;;;4.80;;
19671;SDS011;9983;51.114;13.788;2022-10-26T18:43:22;6.68;;;4.13;;
19671;SDS011;9983;51.114;13.788;2022-10-26T18:48:23;7.63;;;3.45;;
19671;SDS011;9983;51.114;13.788;2022-10-26T18:53:23;8.55;;;4.40;;
19671;SDS011;9983;51.114;13.788;2022-10-26T18:58:23;12.52;;;5.15;;
19671;SDS011;9983;51.114;13.788;2022-10-26T19:03:23;9.25;;;5.80;;
19671;SDS011;9983;51.114;13.788;2022-10-26T19:08:24;8.98;;;6.03;;
19671;SDS011;9983;51.114;13.788;2022-10-26T19:13:24;7.83;;;4.83;;
19671;SDS011;9983;51.114;13.788;2022-10-26T19:18:24;8.80;;;6.15;;
19671;SDS011;9983;51.114;13.788;2022-10-26T19:23:24;11.95;;;6.20;;
19671;SDS011;9983;51.114;13.788;2022-10-26T19:28:30;10.23;;;5.50;;
19671;SDS011;9983;51.114;13.788;2022-10-26T19:33:30;9.20;;;5.65;;
19671;SDS011;9983;51.114;13.788;2022-10-26T19:38:31;9.38;;;5.75;;
19671;SDS011;9983;51.114;13.788;2022-10-26T19:43:32;9.15;;;5.60;;
19671;SDS011;9983;51.114;13.788;2022-10-26T19:48:35;8.88;;;5.68;;
19671;SDS011;9983;51.114;13.788;2022-10-26T19:53:36;10.73;;;5.80;;
19671;SDS011;9983;51.114;13.788;2022-10-26T19:58:36;10.90;;;5.53;;
19671;SDS011;9983;51.114;13.788;2022-10-26T20:03:36;7.93;;;5.80;;
19671;SDS011;9983;51.114;13.788;2022-10-26T20:08:41;6.53;;;5.22;;
19671;SDS011;9983;51.114;13.788;2022-10-26T20:13:43;9.85;;;6.32;;
19671;SDS011;9983;51.114;13.788;2022-10-26T20:18:45;8.15;;;4.97;;
19671;SDS011;9983;51.114;13.788;2022-10-26T20:23:45;8.65;;;5.50;;
19671;SDS011;9983;51.114;13.788;2022-10-26T20:28:46;9.52;;;5.72;;
19671;SDS011;9983;51.114;13.788;2022-10-26T20:33:48;13.63;;;5.80;;
19671;SDS011;9983;51.114;13.788;2022-10-26T20:38:50;9.73;;;6.07;;
19671;SDS011;9983;51.114;13.788;2022-10-26T20:43:51;13.18;;;5.85;;
19671;SDS011;9983;51.114;13.788;2022-10-26T20:48:52;10.65;;;5.78;;
19671;SDS011;9983;51.114;13.788;2022-10-26T20:53:57;13.02;;;6.28;;
19671;SDS011;9983;51.114;13.788;2022-10-26T20:59:09;12.45;;;6.00;;
19671;SDS011;9983;51.114;13.788;2022-10-26T21:04:33;10.43;;;5.88;;
19671;SDS011;9983;51.114;13.788;2022-10-26T21:09:34;7.43;;;4.93;;
19671;SDS011;9983;51.114;13.788;2022-10-26T21:14:34;11.02;;;5.88;;
19671;SDS011;9983;51.114;13.788;2022-10-26T21:19:38;8.07;;;5.93;;
19671;SDS011;9983;51.114;13.788;2022-10-26T21:24:40;9.77;;;5.38;;
19671;SDS011;9983;51.114;13.788;2022-10-26T21:29:40;12.98;;;6.30;;
19671;SDS011;9983;51.114;13.788;2022-10-26T21:34:40;10.07;;;5.60;;
19671;SDS011;9983;51.114;13.788;2022-10-26T21:39:41;14.20;;;6.90;;
19671;SDS011;9983;51.114;13.788;2022-10-26T21:44:41;12.60;;;5.95;;
19671;SDS011;9983;51.114;13.788;2022-10-26T21:49:41;11.52;;;6.10;;
19671;SDS011;9983;51.114;13.788;2022-10-26T21:54:41;13.13;;;5.95;;
19671;SDS011;9983;51.114;13.788;2022-10-26T21:59:42;8.75;;;6.38;;
19671;SDS011;9983;51.114;13.788;2022-10-26T22:04:42;8.80;;;5.68;;
19671;SDS011;9983;51.114;13.788;2022-10-26T22:09:42;12.07;;;6.10;;
19671;SDS011;9983;51.114;13.788;2022-10-26T22:14:43;11.68;;;6.43;;
19671;SDS011;9983;51.114;13.788;2022-10-26T22:19:43;8.68;;;6.10;;
19671;SDS011;9983;51.114;13.788;2022-10-26T22:24:43;15.73;;;6.63;;
19671;SDS011;9983;51.114;13.788;2022-10-26T22:29:43;10.68;;;6.13;;
19671;SDS011;9983;51.114;13.788;2022-10-26T22:34:44;15.88;;;6.68;;
19671;SDS011;9983;51.114;13.788;2022-10-26T22:39:45;8.70;;;5.72;;
19671;SDS011;9983;51.114;13.788;2022-10-26T22:44:45;14.82;;;6.15;;
19671;SDS011;9983;51.114;13.788;2022-10-26T22:49:45;9.43;;;6.38;;
19671;SDS011;9983;51.114;13.788;2022-10-26T22:54:46;10.15;;;6.72;;
19671;SDS011;9983;51.114;13.788;2022-10-26T22:59:46;12.30;;;6.50;;
19671;SDS011;9983;51.114;13.788;2022-10-26T23:04:46;8.30;;;6.15;;
19671;SDS011;9983;51.114;13.788;2022-10-26T23:09:46;10.02;;;6.40;;
19671;SDS011;9983;51.114;13.788;2022-10-26T23:14:47;11.25;;;6.05;;
19671;SDS011;9983;51.114;13.788;2022-10-26T23:19:47;12.05;;;7.18;;
19671;SDS011;9983;51.114;13.788;2022-10-26T23:24:47;11.32;;;6.53;;
19671;SDS011;9983;51.114;13.788;2022-10-26T23:29:47;13.65;;;7.03;;
19671;SDS011;9983;51.114;13.788;2022-10-26T23:34:48;12.52;;;7.22;;
19671;SDS011;9983;51.114;13.788;2022-10-26T23:39:48;11.75;;;6.75;;
19671;SDS011;9983;51.114;13.788;2022-10-26T23:44:48;8.13;;;6.25;;
19671;SDS011;9983;51.114;13.788;2022-10-26T23:49:48;12.82;;;6.22;;
19671;SDS011;9983;51.114;13.788;2022-10-26T23:54:49;10.82;;;6.25;;
19671;SDS011;9983;51.114;13.788;2022-10-26T23:59:49;9.48;;;6.35;;
